Darstellungsparameter: Aktuell verwendete Einstellungen:
Skalierung der Graphiken ... ?
xyx+y,   Skalierungsfaktor:      Skalierung: Modus: x, Faktor: 1
Darstellungszeitraum ... ?
Vom - - bis: - -   Zeitraum: 01.01.2014 - 31.12.2014
Min/Max/Avg-Anzeige ... ?
Zeige MMA aktuell
Zeige MMA Monat
Zeige MMA alles
Zeige --A aktuell
Zeige --A Monat
Zeige --A alles
Keine MMA-Anzeige
MMA:
Keine MMA-Graphiken
MMA-Basis: 01.01.2014 - 31.12.2014
Quicknavigation für Darstellung... ?
Tage:      1T, 2T, 3T, 5T -1T -2T -3T -5T +1T +2T +3T +5T
Wochen: 1W, 2W, 3W -1W -2W -3W +1W +2W +3W
Monate: 1M, 3M, 6M -1M -3M -6M +1M +3M +6M
Jahre:    1J, 3J, 5J, 10J -1J -3J -5J -10J +1J +3J +5J +10J
Nutze für die Darstellung ... ?
Originaldaten oder ...
Mittelwerte Minima Maxima auf...
Stundenbasis Tagesbasis Wochenbasis
Monatsbasis Jahresbasis      Datenbasis: Mittelwerte auf Tagesbasis
Darstellen als:
Statistik (Auto) Statistik J:M      Darstellung:
Zur Graphik,    zurück zur Übersicht aller Sensoren.
 
Tabellarische Datenbersicht: ?
 
Sensor: Nr:Datum:Temp:Feuchte:Taupunkt:
Aussen-T/F 1 01-01-2014 00:00:00 6.46912 C 86.4737 % 4.38 C
2 02-01-2014 00:00:00 8.31947 C 88.5649 % 6.54 C
3 03-01-2014 00:00:00 8.74861 C 86.5347 % 6.63 C
4 04-01-2014 00:00:00 7.47049 C 88.5833 % 5.71 C
5 05-01-2014 00:00:00 6.13111 C 91.4622 % 4.85 C
6 06-01-2014 00:00:00 8.33819 C 89.1736 % 6.66 C
7 07-01-2014 00:00:00 10.72882 C 85.7708 % 8.45 C
8 08-01-2014 00:00:00 10.3965 C 86.9027 % 8.31 C
9 09-01-2014 00:00:00 9.27876 C 85.9961 % 7.06 C
10 10-01-2014 00:00:00 5.59896 C 86.9757 % 3.61 C
11 11-01-2014 00:00:00 3.80382 C 93.2049 % 2.81 C
12 12-01-2014 00:00:00 0.34545 C 97.0618 % -0.06 C
13 13-01-2014 00:00:00 3.73194 C 95.9965 % 3.15 C
14 14-01-2014 00:00:00 5.06036 C 94.4536 % 4.25 C
15 15-01-2014 00:00:00 4.1934 C 91.9444 % 3 C
16 16-01-2014 00:00:00 6.5375 C 93.3160 % 5.54 C
17 17-01-2014 00:00:00 6.75 C 92.8021 % 5.67 C
18 18-01-2014 00:00:00 4.5321 C 90.4686 % 3.11 C
19 19-01-2014 00:00:00 4.621 C 92.0569 % 3.44 C
20 20-01-2014 00:00:00 4.32836 C 94.6567 % 3.55 C
21 21-01-2014 00:00:00 3.49792 C 93.6632 % 2.58 C
22 22-01-2014 00:00:00 3.18571 C 95.3022 % 2.51 C
23 23-01-2014 00:00:00 3.72927 C 92.3049 % 2.6 C
24 24-01-2014 00:00:00 3.90268 C 93.5670 % 2.96 C
25 25-01-2014 00:00:00 2.8165 C 94.8000 % 2.07 C
Sensor: Nr:Datum:Temp:Feuchte:Taupunkt:
Aussen-T/F 26 26-01-2014 00:00:00 5.11851 C 83.3630 % 2.54 C
27 27-01-2014 00:00:00 4.4199 C 87.2094 % 2.48 C
28 28-01-2014 00:00:00 2.36869 C 88.8889 % 0.73 C
29 29-01-2014 00:00:00 1.54036 C 85.8253 % -0.57 C
30 30-01-2014 00:00:00 1.98611 C 84.2049 % -0.39 C
31 31-01-2014 00:00:00 1.03819 C 91.0799 % -0.25 C
32 01-02-2014 00:00:00 4.63819 C 89.8646 % 3.12 C
33 02-02-2014 00:00:00 4.14306 C 90.0729 % 2.66 C
34 03-02-2014 00:00:00 1.00938 C 95.5486 % 0.38 C
35 04-02-2014 00:00:00 4.28785 C 89.7083 % 2.75 C
36 05-02-2014 00:00:00 4.74236 C 89.7049 % 3.2 C
37 06-02-2014 00:00:00 8.42431 C 76.6181 % 4.56 C
38 07-02-2014 00:00:00 8.79132 C 78.4410 % 5.25 C
39 08-02-2014 00:00:00 6.5309 C 83.7222 % 3.98 C
40 09-02-2014 00:00:00 5.34375 C 80.9306 % 2.34 C
41 10-02-2014 00:00:00 3.38819 C 87.2500 % 1.48 C
42 11-02-2014 00:00:00 5.41354 C 82.3819 % 2.66 C
43 12-02-2014 00:00:00 5.44028 C 81.1319 % 2.47 C
44 13-02-2014 00:00:00 5.71771 C 88.4479 % 3.96 C
45 14-02-2014 00:00:00 5.64722 C 85.6979 % 3.44 C
46 15-02-2014 00:00:00 9.70669 C 79.3415 % 6.31 C
47 16-02-2014 00:00:00 7.36493 C 80.5694 % 4.25 C
48 17-02-2014 00:00:00 3.59861 C 91.7118 % 2.38 C
49 18-02-2014 00:00:00 3.38715 C 94.0590 % 2.52 C
50 19-02-2014 00:00:00 7.825 C 84.9722 % 5.46 C
Sensor: Nr:Datum:Temp:Feuchte:Taupunkt:
Aussen-T/F 51 20-02-2014 00:00:00 8.68958 C 82.6215 % 5.9 C
52 21-02-2014 00:00:00 7.64062 C 84.5451 % 5.21 C
53 22-02-2014 00:00:00 4.99861 C 87.1563 % 3.05 C
54 23-02-2014 00:00:00 5.94204 C 83.6694 % 3.39 C
55 24-02-2014 00:00:00 5.86389 C 80.9444 % 2.85 C
56 25-02-2014 00:00:00 6.68681 C 82.1910 % 3.87 C
57 26-02-2014 00:00:00 8.58182 C 81.5382 % 5.61 C
58 27-02-2014 00:00:00 5.86275 C 84.1961 % 3.41 C
59 28-02-2014 00:00:00 6.2146 C 87.8248 % 4.35 C
60 01-03-2014 00:00:00 5.44375 C 88.4410 % 3.69 C
61 02-03-2014 00:00:00 3.55069 C 87.5208 % 1.68 C
62 03-03-2014 00:00:00 5.27743 C 86.6458 % 3.24 C
63 04-03-2014 00:00:00 4.21701 C 86.7118 % 2.2 C
64 05-03-2014 00:00:00 4.68235 C 86.5059 % 2.63 C
65 06-03-2014 00:00:00 3.87951 C 89.4306 % 2.3 C
66 07-03-2014 00:00:00 6.23037 C 80.7383 % 3.17 C
67 08-03-2014 00:00:00 7.3847 C 80.0427 % 4.18 C
68 09-03-2014 00:00:00 7.27263 C 76.4772 % 3.42 C
69 10-03-2014 00:00:00 7.44444 C 75.5035 % 3.41 C
70 11-03-2014 00:00:00 8.4184 C 78.6424 % 4.93 C
71 12-03-2014 00:00:00 9.07812 C 74.1354 % 4.72 C
72 13-03-2014 00:00:00 8.16007 C 73.3681 % 3.69 C
73 14-03-2014 00:00:00 7.91944 C 76.8993 % 4.12 C
74 15-03-2014 00:00:00 8.97326 C 77.3021 % 5.22 C
75 16-03-2014 00:00:00 11.50486 C 77.2500 % 7.67 C
Sensor: Nr:Datum:Temp:Feuchte:Taupunkt:
Aussen-T/F 76 17-03-2014 00:00:00 10.27882 C 81.5486 % 7.27 C
77 18-03-2014 00:00:00 9.4066 C 83.2882 % 6.72 C
78 19-03-2014 00:00:00 12.2875 C 70.5521 % 7.1 C
79 20-03-2014 00:00:00 12.49333 C 67.2772 % 6.6 C
80 21-03-2014 00:00:00 13.1375 C 66.5069 % 7.05 C
81 22-03-2014 00:00:00 8.65208 C 83.0799 % 5.95 C
82 23-03-2014 00:00:00 6.03507 C 81.4861 % 3.11 C
83 24-03-2014 00:00:00 5.42632 C 80.7404 % 2.39 C
84 25-03-2014 00:00:00 4.1625 C 82.4271 % 1.44 C
85 26-03-2014 00:00:00 4.56076 C 78.8125 % 1.21 C
86 27-03-2014 00:00:00 8.14604 C 73.6475 % 3.73 C
87 28-03-2014 00:00:00 10.60972 C 66.4167 % 4.62 C
88 29-03-2014 00:00:00 10.34963 C 70.5809 % 5.24 C
89 30-03-2014 00:00:00 9.15619 C 76.1429 % 5.18 C
90 31-03-2014 00:00:00 12.96562 C 65.8924 % 6.75 C
91 01-04-2014 00:00:00 13.77519 C 67.7366 % 7.92 C
92 02-04-2014 00:00:00 13.90458 C 68.9754 % 8.31 C
93 03-04-2014 00:00:00 12.54324 C 77.5811 % 8.74 C
94 04-04-2014 00:00:00 14.95971 C 74.9173 % 10.55 C
95 05-04-2014 00:00:00 13.00531 C 86.2612 % 10.77 C
96 06-04-2014 00:00:00 11.67782 C 83.0879 % 8.91 C
97 07-04-2014 00:00:00 15.95041 C 75.4713 % 11.62 C
98 08-04-2014 00:00:00 12.18521 C 67.1585 % 6.28 C
99 09-04-2014 00:00:00 9.27426 C 75.9154 % 5.25 C
100 10-04-2014 00:00:00 10.31543 C 77.0864 % 6.48 C
Sensor: Nr:Datum:Temp:Feuchte:Taupunkt:
Aussen-T/F 101 11-04-2014 00:00:00 14.56849 C 72.5000 % 9.69 C
102 12-04-2014 00:00:00 12.65368 C 70.8982 % 7.52 C
103 13-04-2014 00:00:00 11.60669 C 71.0599 % 6.55 C
104 14-04-2014 00:00:00 9.7593 C 71.2491 % 4.81 C
105 15-04-2014 00:00:00 7.10171 C 73.7991 % 2.75 C
106 16-04-2014 00:00:00 12.97192 C 49.4521 % 2.65 C
107 17-04-2014 00:00:00 9.85313 C 63.3021 % 3.22 C
108 18-04-2014 00:00:00 10.72049 C 64.8750 % 4.39 C
109 19-04-2014 00:00:00 10.82049 C 71.8993 % 5.96 C
110 20-04-2014 00:00:00 14.91825 C 70.5509 % 9.62 C
111 21-04-2014 00:00:00 12.49479 C 77.9896 % 8.77 C
112 22-04-2014 00:00:00 12.82847 C 85.6076 % 10.48 C
113 23-04-2014 00:00:00 13.43958 C 81.1771 % 10.28 C
114 24-04-2014 00:00:00 15.42535 C 79.0035 % 11.8 C
115 25-04-2014 00:00:00 16.71562 C 74.1319 % 12.09 C
116 26-04-2014 00:00:00 15.2 C 74.7604 % 10.75 C
117 27-04-2014 00:00:00 13.07674 C 81.7986 % 10.04 C
118 28-04-2014 00:00:00 12.80243 C 79.8715 % 9.42 C
119 29-04-2014 00:00:00 13.43403 C 90.3056 % 11.88 C
120 30-04-2014 00:00:00 14.53507 C 84.7500 % 12 C
121 01-05-2014 00:00:00 14.73611 C 81.3611 % 11.58 C
122 02-05-2014 00:00:00 11.71319 C 86.6736 % 9.57 C
123 03-05-2014 00:00:00 10.92708 C 61.0069 % 3.71 C
124 04-05-2014 00:00:00 9.61042 C 68.0590 % 4.02 C
125 05-05-2014 00:00:00 12.60069 C 67.5521 % 6.76 C
Sensor: Nr:Datum:Temp:Feuchte:Taupunkt:
Aussen-T/F 126 06-05-2014 00:00:00 13.72083 C 74.2778 % 9.23 C
127 07-05-2014 00:00:00 13.05764 C 84.9931 % 10.6 C
128 08-05-2014 00:00:00 12.32847 C 84.6146 % 9.81 C
129 09-05-2014 00:00:00 15.33403 C 71.0833 % 10.13 C
130 10-05-2014 00:00:00 12.40903 C 81.6528 % 9.36 C
131 11-05-2014 00:00:00 11.45764 C 80.1667 % 8.16 C
132 12-05-2014 00:00:00 11.1941 C 74.9167 % 6.92 C
133 13-05-2014 00:00:00 10.30729 C 85.3368 % 7.96 C
134 14-05-2014 00:00:00 10.63542 C 76.9514 % 6.77 C
135 15-05-2014 00:00:00 10.00382 C 80.4757 % 6.8 C
136 16-05-2014 00:00:00 13.25347 C 73.1250 % 8.55 C
137 17-05-2014 00:00:00 14.22292 C 71.7500 % 9.2 C
138 18-05-2014 00:00:00 15.4809 C 74.3021 % 10.93 C
139 19-05-2014 00:00:00 17.57188 C 70.6944 % 12.19 C
140 20-05-2014 00:00:00 19.46562 C 67.3681 % 13.26 C
141 21-05-2014 00:00:00 20.29792 C 68.1181 % 14.23 C
142 22-05-2014 00:00:00 20.21806 C 65.7465 % 13.61 C
143 23-05-2014 00:00:00 15.52639 C 89.6667 % 13.84 C
144 24-05-2014 00:00:00 14.72993 C 81.1514 % 11.53 C
145 25-05-2014 00:00:00 15.25071 C 74.9149 % 10.83 C
146 26-05-2014 00:00:00 16.8625 C 80.3056 % 13.45 C
147 27-05-2014 00:00:00 15.19431 C 94.7346 % 14.36 C
148 28-05-2014 00:00:00 14.58118 C 88.4000 % 12.69 C
149 29-05-2014 00:00:00 13.44653 C 87.1042 % 11.35 C
150 30-05-2014 00:00:00 13.2316 C 70.4167 % 7.97 C
Sensor: Nr:Datum:Temp:Feuchte:Taupunkt:
Aussen-T/F 151 31-05-2014 00:00:00 13.40382 C 74.2639 % 8.92 C
152 01-06-2014 00:00:00 15.49273 C 69.6545 % 9.98 C
153 02-06-2014 00:00:00 15.88943 C 67.9715 % 9.99 C
154 03-06-2014 00:00:00 15.78662 C 74.8627 % 11.34 C
155 04-06-2014 00:00:00 14.95388 C 86.4155 % 12.71 C
156 05-06-2014 00:00:00 14.55765 C 67.7687 % 8.68 C
157 06-06-2014 00:00:00 17.20312 C 67.7778 % 11.2 C
158 07-06-2014 00:00:00 20.77257 C 72.3750 % 15.62 C
159 08-06-2014 00:00:00 24.09514 C 70.7431 % 18.45 C
160 09-06-2014 00:00:00 25.74583 C 69.9583 % 19.85 C
161 10-06-2014 00:00:00 23.66632 C 70.6389 % 18.01 C
162 11-06-2014 00:00:00 20.10803 C 81.3175 % 16.81 C
163 12-06-2014 00:00:00 19.97431 C 66.4583 % 13.54 C
164 13-06-2014 00:00:00 18.37014 C 68.1597 % 12.4 C
165 14-06-2014 00:00:00 17.27465 C 65.5104 % 10.76 C
166 15-06-2014 00:00:00 16.86944 C 67.1875 % 10.75 C
167 16-06-2014 00:00:00 15.61944 C 74.7396 % 11.15 C
168 17-06-2014 00:00:00 17.41354 C 66.8819 % 11.2 C
169 18-06-2014 00:00:00 17.76319 C 71.4931 % 12.54 C
170 19-06-2014 00:00:00 15.70791 C 75.5252 % 11.4 C
171 20-06-2014 00:00:00 15.64143 C 71.1667 % 10.44 C
172 21-06-2014 00:00:00 16.62118 C 65.5903 % 10.15 C
173 22-06-2014 00:00:00 16.62782 C 66.3415 % 10.33 C
174 23-06-2014 00:00:00 17.14792 C 65.1910 % 10.56 C
175 24-06-2014 00:00:00 16.64978 C 71.6277 % 11.5 C
Sensor: Nr:Datum:Temp:Feuchte:Taupunkt:
Aussen-T/F 176 25-06-2014 00:00:00 17.29096 C 56.5426 % 8.58 C
177 26-06-2014 00:00:00 16.18958 C 64.0764 % 9.4 C
178 27-06-2014 00:00:00 17.54167 C 67.2604 % 11.41 C
179 28-06-2014 00:00:00 16.28043 C 87.3950 % 14.18 C
180 29-06-2014 00:00:00 14.67192 C 93.3251 % 13.61 C
181 30-06-2014 00:00:00 16.05247 C 75.2167 % 11.67 C
182 01-07-2014 00:00:00 15.65035 C 70.2917 % 10.26 C
183 02-07-2014 00:00:00 16.86146 C 65.5313 % 10.37 C
184 03-07-2014 00:00:00 19.78889 C 59.6493 % 11.72 C
185 04-07-2014 00:00:00 20.36076 C 67.5382 % 14.16 C
186 05-07-2014 00:00:00 20.4 C 77.3439 % 16.3 C
187 06-07-2014 00:00:00 23.48509 C 69.7818 % 17.65 C
188 07-07-2014 00:00:00 19.86367 C 64.8202 % 13.05 C
189 08-07-2014 00:00:00 15.57633 C 89.8898 % 13.92 C
190 09-07-2014 00:00:00 12.97083 C 95.1667 % 12.22 C
191 10-07-2014 00:00:00 17.68292 C 90.2000 % 16.06 C
192 11-07-2014 00:00:00 18.42369 C 88.6466 % 16.51 C
193 12-07-2014 00:00:00 18.68363 C 88.1018 % 16.67 C
194 13-07-2014 00:00:00 19.06941 C 85.5922 % 16.6 C
195 14-07-2014 00:00:00 19.60206 C 79.5021 % 15.96 C
196 15-07-2014 00:00:00 21.3216 C 70.6901 % 15.78 C
197 16-07-2014 00:00:00 21.88732 C 74.8829 % 17.23 C
198 17-07-2014 00:00:00 23.77903 C 70.2742 % 18.04 C
199 18-07-2014 00:00:00 24.87935 C 65.5097 % 17.97 C
200 19-07-2014 00:00:00 27.76989 C 58.4086 % 18.86 C
Sensor: Nr:Datum:Temp:Feuchte:Taupunkt:
Aussen-T/F 201 20-07-2014 00:00:00 22.68715 C 80.6840 % 19.19 C
202 21-07-2014 00:00:00 20.29965 C 91.0660 % 18.79 C
203 22-07-2014 00:00:00 23.6856 C 82.0494 % 20.44 C
204 23-07-2014 00:00:00 23.11788 C 73.8869 % 18.2 C
205 24-07-2014 00:00:00 20.63922 C 73.5020 % 15.74 C
206 25-07-2014 00:00:00 21.8193 C 72.9825 % 16.76 C
207 26-07-2014 00:00:00 21.92 C 74.3097 % 17.14 C
208 27-07-2014 00:00:00 19.66694 C 83.9339 % 16.88 C
209 28-07-2014 00:00:00 22.3284 C 78.8580 % 18.48 C
210 29-07-2014 00:00:00 19.88194 C 95.8125 % 19.19 C
211 30-07-2014 00:00:00 19.93194 C 85.4097 % 17.41 C
212 31-07-2014 00:00:00 20.20645 C 77.0896 % 16.06 C
213 01-08-2014 00:00:00 20.08438 C 81.7153 % 16.86 C
214 02-08-2014 00:00:00 20.10868 C 84.8264 % 17.48 C
215 03-08-2014 00:00:00 21.3566 C 81.2743 % 18.02 C
216 04-08-2014 00:00:00 19.00347 C 86.5799 % 16.71 C
217 05-08-2014 00:00:00 18.77049 C 82.0208 % 15.64 C
218 06-08-2014 00:00:00 17.59618 C 84.4201 % 14.94 C
219 07-08-2014 00:00:00 18.9934 C 85.7986 % 16.56 C
220 08-08-2014 00:00:00 18.87604 C 89.5625 % 17.12 C
221 09-08-2014 00:00:00 20.16771 C 80.6076 % 16.73 C
222 10-08-2014 00:00:00 19.0125 C 90.0208 % 17.34 C
223 11-08-2014 00:00:00 17.0066 C 81.0000 % 13.72 C
224 12-08-2014 00:00:00 17.62431 C 72.1944 % 12.56 C
225 13-08-2014 00:00:00 15.97674 C 89.6528 % 14.28 C
Sensor: Nr:Datum:Temp:Feuchte:Taupunkt:
Aussen-T/F 226 14-08-2014 00:00:00 16.15426 C 84.3298 % 13.51 C
227 15-08-2014 00:00:00 14.48638 C 92.1720 % 13.23 C
228 16-08-2014 00:00:00 15.13439 C 89.3930 % 13.4 C
229 17-08-2014 00:00:00 16.14062 C 77.5243 % 12.21 C
230 18-08-2014 00:00:00 16.30417 C 74.5313 % 11.77 C
231 19-08-2014 00:00:00 13.79653 C 83.4410 % 11.04 C
232 20-08-2014 00:00:00 12.68681 C 83.0799 % 9.89 C
233 21-08-2014 00:00:00 12.84653 C 82.9965 % 10.03 C
234 22-08-2014 00:00:00 14.04062 C 78.5000 % 10.36 C
235 23-08-2014 00:00:00 14.26875 C 83.3194 % 11.48 C
236 24-08-2014 00:00:00 11.58993 C 93.2465 % 10.54 C
237 25-08-2014 00:00:00 13.23854 C 93.7743 % 12.26 C
238 26-08-2014 00:00:00 14.79479 C 96.8681 % 14.3 C
239 27-08-2014 00:00:00 15.38741 C 91.3237 % 13.98 C
240 28-08-2014 00:00:00 15.84062 C 93.0556 % 14.72 C
241 29-08-2014 00:00:00 18.05278 C 88.6979 % 16.16 C
242 30-08-2014 00:00:00 16.23299 C 90.9965 % 14.76 C
243 31-08-2014 00:00:00 14.70069 C 92.8125 % 13.55 C
244 01-09-2014 00:00:00 14.60556 C 91.4896 % 13.24 C
245 02-09-2014 00:00:00 14.6191 C 90.6771 % 13.11 C
246 03-09-2014 00:00:00 15.03299 C 89.9549 % 13.4 C
247 04-09-2014 00:00:00 16.74028 C 89.6910 % 15.04 C
248 05-09-2014 00:00:00 18.15903 C 91.3819 % 16.73 C
249 06-09-2014 00:00:00 17.4559 C 92.7604 % 16.27 C
250 07-09-2014 00:00:00 18.08889 C 88.1264 % 16.09 C
Sensor: Nr:Datum:Temp:Feuchte:Taupunkt:
Aussen-T/F 251 08-09-2014 00:00:00 17.83403 C 84.0833 % 15.11 C
252 09-09-2014 00:00:00 15.64965 C 81.4410 % 12.48 C
253 10-09-2014 00:00:00 14.27882 C 83.4132 % 11.51 C
254 11-09-2014 00:00:00 14.96111 C 83.0903 % 12.12 C
255 12-09-2014 00:00:00 14.12153 C 84.7257 % 11.59 C
256 13-09-2014 00:00:00 16.12118 C 88.7743 % 14.27 C
257 14-09-2014 00:00:00 16.65196 C 88.0641 % 14.67 C
258 15-09-2014 00:00:00 16.079 C 91.5516 % 14.7 C
259 16-09-2014 00:00:00 16.93264 C 90.1458 % 15.31 C
260 17-09-2014 00:00:00 16.05139 C 92.2118 % 14.79 C
261 18-09-2014 00:00:00 17.4875 C 95.6215 % 16.78 C
262 19-09-2014 00:00:00 18.38993 C 95.2708 % 17.62 C
263 20-09-2014 00:00:00 17.14931 C 96.4583 % 16.58 C
264 21-09-2014 00:00:00 15.46146 C 95.3090 % 14.71 C
265 22-09-2014 00:00:00 12.53194 C 86.3194 % 10.31 C
266 23-09-2014 00:00:00 9.91146 C 90.8993 % 8.5 C
267 24-09-2014 00:00:00 11.10451 C 89.8056 % 9.5 C
268 25-09-2014 00:00:00 13.67917 C 85.6806 % 11.33 C
269 26-09-2014 00:00:00 14.24896 C 88.9653 % 12.46 C
270 27-09-2014 00:00:00 15.59965 C 91.2743 % 14.18 C
271 28-09-2014 00:00:00 14.22743 C 95.0660 % 13.45 C
272 29-09-2014 00:00:00 15.41493 C 94.8472 % 14.59 C
273 30-09-2014 00:00:00 16.83438 C 93.1875 % 15.73 C
274 01-10-2014 00:00:00 15.87778 C 94.6389 % 15.02 C
275 02-10-2014 00:00:00 14.35799 C 95.7326 % 13.69 C
Sensor: Nr:Datum:Temp:Feuchte:Taupunkt:
Aussen-T/F 276 03-10-2014 00:00:00 13.73785 C 95.4063 % 13.02 C
277 04-10-2014 00:00:00 12.86979 C 93.2014 % 11.8 C
278 05-10-2014 00:00:00 12.94097 C 94.0799 % 12.01 C
279 06-10-2014 00:00:00 14.3 C 90.3750 % 12.75 C
280 07-10-2014 00:00:00 13.71806 C 92.2986 % 12.49 C
281 08-10-2014 00:00:00 13.3 C 97.6069 % 12.93 C
282 09-10-2014 00:00:00 15.17173 C 97.6859 % 14.81 C
283 10-10-2014 00:00:00 14.20902 C 96.4000 % 13.64 C
284 11-10-2014 00:00:00 14.77847 C 96.0347 % 14.15 C
285 12-10-2014 00:00:00 12.52744 C 95.6029 % 11.84 C
286 13-10-2014 00:00:00 14.72014 C 96.7569 % 14.21 C
287 14-10-2014 00:00:00 12.54495 C 95.1847 % 11.8 C
288 15-10-2014 00:00:00 11.65639 C 95.3910 % 10.94 C
289 16-10-2014 00:00:00 14.02682 C 94.9818 % 13.24 C
290 17-10-2014 00:00:00 14.05977 C 93.7854 % 13.07 C
291 18-10-2014 00:00:00 12.49887 C 97.7283 % 12.15 C
292 19-10-2014 00:00:00 15.09722 C 92.7188 % 13.93 C
293 20-10-2014 00:00:00 15.06015 C 83.9885 % 12.38 C
294 21-10-2014 00:00:00 11.78491 C 85.1649 % 9.38 C
295 22-10-2014 00:00:00 8.88438 C 85.2674 % 6.55 C
296 23-10-2014 00:00:00 10.3816 C 87.9444 % 8.47 C
297 24-10-2014 00:00:00 10.59097 C 90.2951 % 9.07 C
298 25-10-2014 00:00:00 11.53056 C 94.5417 % 10.69 C
299 26-10-2014 00:00:00 11.35625 C 95.5278 % 10.67 C
300 27-10-2014 00:00:00 9.22813 C 96.0903 % 8.64 C
Sensor: Nr:Datum:Temp:Feuchte:Taupunkt:
Aussen-T/F 301 28-10-2014 00:00:00 7.93681 C 88.3750 % 6.14 C
302 29-10-2014 00:00:00 9.50556 C 91.5347 % 8.2 C
303 30-10-2014 00:00:00 12.10625 C 96.8819 % 11.63 C
304 31-10-2014 00:00:00 12.05903 C 97.0694 % 11.61 C
305 01-11-2014 00:00:00 10.92674 C 98.2674 % 10.66 C
306 02-11-2014 00:00:00 11.24448 C 97.2776 % 10.83 C
307 03-11-2014 00:00:00 13.84028 C 90.1806 % 12.26 C
308 04-11-2014 00:00:00 11.22049 C 96.5521 % 10.69 C
309 05-11-2014 00:00:00 9.33229 C 95.2257 % 8.61 C
310 06-11-2014 00:00:00 6.59514 C 92.6250 % 5.49 C
311 07-11-2014 00:00:00 5.60208 C 94.8160 % 4.84 C
312 08-11-2014 00:00:00 8.8941 C 91.4340 % 7.58 C
313 09-11-2014 00:00:00 6.62257 C 96.8125 % 6.15 C
314 10-11-2014 00:00:00 8.76389 C 96.3715 % 8.22 C
315 11-11-2014 00:00:00 8.47553 C 95.0106 % 7.72 C
316 12-11-2014 00:00:00 9.50104 C 95.2604 % 8.78 C
317 13-11-2014 00:00:00 9.66736 C 96.6806 % 9.17 C
318 14-11-2014 00:00:00 10.60174 C 90.0313 % 9.04 C
319 15-11-2014 00:00:00 9.75938 C 94.5347 % 8.93 C
320 16-11-2014 00:00:00 8.75674 C 97.4468 % 8.38 C
321 17-11-2014 00:00:00 8.71146 C 97.5799 % 8.35 C
322 18-11-2014 00:00:00 8.62491 C 96.7473 % 8.14 C
323 19-11-2014 00:00:00 8.07465 C 95.9514 % 7.47 C
324 20-11-2014 00:00:00 6.45486 C 94.4826 % 5.63 C
325 21-11-2014 00:00:00 5.36458 C 95.0799 % 4.64 C
Sensor: Nr:Datum:Temp:Feuchte:Taupunkt:
Aussen-T/F 326 22-11-2014 00:00:00 5.83576 C 95.7569 % 5.21 C
327 23-11-2014 00:00:00 6.30104 C 96.9931 % 5.86 C
328 24-11-2014 00:00:00 7.36679 C 94.6236 % 6.56 C
329 25-11-2014 00:00:00 3.04781 C 97.7769 % 2.73 C
330 26-11-2014 00:00:00 5.29848 C 89.8182 % 3.77 C
331 27-11-2014 00:00:00 5.85447 C 92.9300 % 4.8 C
332 28-11-2014 00:00:00 5.42203 C 91.8771 % 4.21 C
333 29-11-2014 00:00:00 4.46596 C 89.4070 % 2.88 C
334 30-11-2014 00:00:00 3.88993 C 91.8229 % 2.69 C
335 01-12-2014 00:00:00 3.33299 C 91.1840 % 2.04 C
336 02-12-2014 00:00:00 1.63731 C 91.3192 % 0.38 C
337 03-12-2014 00:00:00 1.74095 C 94.0216 % 0.88 C
338 04-12-2014 00:00:00 2.32917 C 92.6806 % 1.27 C
339 05-12-2014 00:00:00 4.15278 C 92.7500 % 3.09 C
340 06-12-2014 00:00:00 4.51389 C 95.0174 % 3.79 C
341 07-12-2014 00:00:00 4.32049 C 92.1597 % 3.16 C
342 08-12-2014 00:00:00 3.10625 C 93.1458 % 2.11 C
343 09-12-2014 00:00:00 2.57569 C 96.3472 % 2.05 C
344 10-12-2014 00:00:00 4.42118 C 89.8993 % 2.91 C
345 11-12-2014 00:00:00 6.26736 C 89.8125 % 4.72 C
346 12-12-2014 00:00:00 9.07951 C 85.8507 % 6.84 C
347 13-12-2014 00:00:00 4.45625 C 96.4618 % 3.94 C
348 14-12-2014 00:00:00 2.59063 C 96.5868 % 2.1 C
349 15-12-2014 00:00:00 3.42986 C 93.8646 % 2.54 C
350 16-12-2014 00:00:00 6.12049 C 91.8542 % 4.9 C
Sensor: Nr:Datum:Temp:Feuchte:Taupunkt:
Aussen-T/F 351 17-12-2014 00:00:00 6.08021 C 92.4167 % 4.95 C
352 18-12-2014 00:00:00 11.91597 C 90.3021 % 10.38 C
353 19-12-2014 00:00:00 10.45243 C 86.8194 % 8.35 C
354 20-12-2014 00:00:00 5.90764 C 85.4618 % 3.66 C
355 21-12-2014 00:00:00 6.41042 C 88.0833 % 4.59 C
356 22-12-2014 00:00:00 8.375 C 87.5139 % 6.43 C
357 23-12-2014 00:00:00 10.04444 C 85.6222 % 7.75 C
358 24-12-2014 00:00:00 8.3214 C 86.1158 % 6.14 C
359 25-12-2014 00:00:00 5.2875 C 85.6027 % 3.08 C
360 26-12-2014 00:00:00 2.31469 C 97.1259 % 1.91 C
361 27-12-2014 00:00:00 1.46649 C 94.8796 % 0.74 C
362 28-12-2014 00:00:00 -3.09591 C 79.8636 % -6.07 C
363 29-12-2014 00:00:00 -0.46157 C 89.7388 % -1.94 C
364 30-12-2014 00:00:00 2.6765 C 92.5574 % 1.59 C
365 31-12-2014 00:00:00 2.46053 C 93.8487 % 1.57 C

Maximal/Minimal-Werte vom 01.01.2014 - 31.12.2014

Sensor Min Max Avg
Temp
(Aussen-T/F)
-5.3 °C
28-12-2014  22:40:00
35.4 °C
09-06-2014  18:00:00
11.75 °C
Feuchte
(Aussen-T/F)
21 %
31-03-2014  15:25:00
100 %
01-01-2014  09:25:00
84.21 %
Taupunkt
(Aussen-T/F)
-6.07 C
28-12-2014  00:00:00
20.44 C
22-07-2014  00:00:00
9.02 C

Die Daten stammen von einer Davis Vantage Pro 2 Wetter-Station und werden unter Linux mit der Software wview2wettercgi und aufbereitet. Alle Angaben erfolgen ohne Gewähr für ihre Vollständigkeit oder Richtigkeit.
Kontakt: Rainer Krienke krienke@uni-koblenz.de . Meine Webseiten an der Uni Koblenz oder privat.
Version: $Revision: 0.78 $